Baltimore, MD (21239)

12:04 PM EDT on October 25, 2014 (GMT -0400)
Lauraville | Change Station
CLOSE
Current Station
Personal Weather Station
Location: Baltimore, MD
Elevation: 289 ft
Nearby Weather Stations

Elev 289 ft 39.35 °N, 76.57 °W | Updated 8 seconds ago

Clear
Clear
64.5 °F
Feels Like 64.5 °F
N
0.0
Wind Variable Wind from NW
Gusts 4.0 mph

Today
High -- | Low -- °F
--% Chance of Precip.
Yesterday
High -- | Low -- °F
Precip. -- in
7:26 AM 6:13 PM
Waxing Crescent, 3% visible
Pressure 29.90 in
Visibility 10.0 miles
Clouds Few 25000 ft
Dew Point 46 °F
Humidity 51%
Rainfall 0.00 in
Snow Depth Not available.
UV 4 out of 12
Pollen 1.20 out of 12
Air Quality Not available.
Flu Activity Sporadic
METAR KBWI 251554Z 28006KT 10SM FEW250 19/06 A2990 RMK AO2 SLP124 T01890056

More Conditions Fewer Conditions

Pressure 29.90 in
Visibility 10.0 miles
Clouds Few 25000 ft
Dew Point 46 °F
Humidity 51%
Rainfall 0.00 in
Snow Depth Not available.
UV 4 out of 12
Pollen 1.20 out of 12
Air Quality Not available.
Flu Activity Sporadic
METAR KBWI 251554Z 28006KT 10SM FEW250 19/06 A2990 RMK AO2 SLP124 T01890056

More Conditions Fewer Conditions

10-Day Weather Forecast

Almanac

Astronomy

Oct. 25, 2014 Rise Set
Actual Time 7:26 AM EDT 6:13 PM EDT
Civil Twilight 6:59 AM EDT 6:41 PM EDT
Nautical Twilight 6:27 AM EDT 7:12 PM EDT
Astronomical Twilight 5:56 AM EDT 7:43 PM EDT
Moon 9:02 AM EDT 7:35 PM EDT
Length of Visible Light 11h 41m
Length of Day
10h 46m
Tomorrow will be 2m 22s shorter.
Waxing Crescent, 3% of the Moon is Illuminated
Today
Waxing Crescent
Oct 30
First Quarter
Nov 6
Full
Nov 14
Last Quarter
Nov 22
New

Today's Extremes

State Highs State Lows

Community

WunderPhotos

Upload Photos

1,764,884 photos uploaded!

Nearby

Snow Depth

Station Depth Elevation
No new snow has been reported.

Earthquake Activity

City Distance Mag. Time & Date
No recent earthquake activity has been reported nearby.
Minimum magnitude displayed is 2.5.

Coastal Water Temperatures

Place Temperature
Baltimore, MD 64.0 °F
Tolchester Beach, MD 59.0 °F
Washington, DC 60.1 °F

Nearby Weather Stations